Time;durP1;ratioP1;P1;durP2;ratioP2;P2;SDS_P1;SDS_P2;PMS_P1;PMS_P2;Temp;Humidity;BMP_temperature;BMP_pressure;BME280_temperature;BME280_humidity;BME280_pressure;Samples;Min_cycle;Max_cycle;Signal;HPM_P1;HPM_P2
2024/02/28 00:01:01;;;;;;;6.63;3.40;;;5.00;99.90;;;;;;5124028;23;20160;-94
2024/02/28 00:03:08;;;;;;;8.02;3.13;;;5.00;99.90;;;;;;5151578;22;20606;-94
2024/02/28 00:05:48;;;;;;;4.93;2.67;;;5.00;99.90;;;;;;5179791;22;20600;-95
2024/02/28 00:08:04;;;;;;;4.80;2.73;;;5.00;99.90;;;;;;5151055;22;20151;-94
2024/02/28 00:10:11;;;;;;;8.73;2.95;;;5.00;99.90;;;;;;5151427;22;20156;-94
2024/02/28 00:12:15;;;;;;;6.23;3.20;;;5.00;99.90;;;;;;5150556;22;20194;-94
2024/02/28 00:14:17;;;;;;;7.17;2.80;;;5.10;99.90;;;;;;5127019;23;20140;-94
2024/02/28 00:16:27;;;;;;;4.67;2.23;;;5.00;99.90;;;;;;5151459;22;20166;-95
2024/02/28 00:18:36;;;;;;;4.00;2.30;;;5.00;99.90;;;;;;5123055;23;20199;-94
2024/02/28 00:21:11;;;;;;;6.67;2.40;;;5.00;99.90;;;;;;5154462;22;20199;-95
2024/02/28 00:23:14;;;;;;;7.83;3.03;;;4.90;99.90;;;;;;5151087;23;20144;-93
2024/02/28 00:25:23;;;;;;;5.00;2.90;;;4.80;99.90;;;;;;5149322;22;20191;-94
2024/02/28 00:27:27;;;;;;;5.93;2.27;;;4.70;99.90;;;;;;5127885;23;20159;-94
2024/02/28 00:29:31;;;;;;;8.90;2.60;;;4.70;99.90;;;;;;5129952;23;20156;-95
2024/02/28 00:31:33;;;;;;;7.03;2.40;;;4.70;99.90;;;;;;5123134;23;20167;-94
2024/02/28 00:33:46;;;;;;;7.23;2.73;;;4.80;99.90;;;;;;5150176;22;20151;-95
2024/02/28 00:35:58;;;;;;;3.90;2.30;;;4.90;99.90;;;;;;5126376;23;20136;-95
2024/02/28 00:38:03;;;;;;;6.20;2.87;;;4.70;99.90;;;;;;5124907;23;20160;-94
2024/02/28 00:40:10;;;;;;;5.43;3.20;;;4.50;99.90;;;;;;5129025;23;20160;-94
2024/02/28 00:42:15;;;;;;;10.07;2.90;;;4.30;99.90;;;;;;5166187;22;20156;-93
2024/02/28 00:44:31;;;;;;;7.17;3.23;;;4.20;99.90;;;;;;5176055;22;20142;-94
2024/02/28 00:46:41;;;;;;;6.70;2.50;;;4.20;99.90;;;;;;5124767;23;20243;-94
2024/02/28 00:48:43;;;;;;;3.93;2.27;;;4.20;99.90;;;;;;5123162;23;20164;-94
2024/02/28 00:51:11;;;;;;;3.93;2.37;;;4.30;99.90;;;;;;5153789;22;20638;-94
2024/02/28 00:53:13;;;;;;;6.73;3.17;;;4.30;99.90;;;;;;5126331;23;20646;-95
2024/02/28 00:55:18;;;;;;;5.93;2.80;;;4.30;99.90;;;;;;5151833;22;20142;-94
2024/02/28 00:57:28;;;;;;;5.90;3.00;;;4.40;99.90;;;;;;5151414;22;20159;-94
2024/02/28 00:59:34;;;;;;;4.43;2.47;;;4.40;99.90;;;;;;5127347;23;20172;-95
2024/02/28 01:01:42;;;;;;;4.23;2.40;;;4.40;99.90;;;;;;5175022;22;20601;-94
2024/02/28 01:04:04;;;;;;;8.87;3.10;;;4.40;99.90;;;;;;5175789;23;20570;-94
2024/02/28 01:06:12;;;;;;;8.93;2.87;;;4.50;99.90;;;;;;5176012;23;20147;-94
2024/02/28 01:08:49;;;;;;;5.43;2.50;;;4.50;99.90;;;;;;5175389;22;20166;-92
2024/02/28 01:11:12;;;;;;;4.17;2.27;;;4.50;99.90;;;;;;5147386;23;20151;-92
2024/02/28 01:13:27;;;;;;;3.97;2.13;;;4.50;99.90;;;;;;5175559;22;20163;-93
2024/02/28 01:15:51;;;;;;;9.67;2.87;;;4.50;99.90;;;;;;5149490;22;20183;-92
2024/02/28 01:17:59;;;;;;;5.53;2.57;;;4.50;99.90;;;;;;5122920;23;20184;-92
2024/02/28 01:20:11;;;;;;;5.60;3.17;;;4.40;99.90;;;;;;5149164;22;20612;-91
2024/02/28 01:22:30;;;;;;;4.53;2.47;;;4.10;99.90;;;;;;5175862;23;20147;-93
2024/02/28 01:24:37;;;;;;;8.00;3.00;;;3.90;99.90;;;;;;5125394;23;20160;-92
2024/02/28 01:26:47;;;;;;;5.87;3.00;;;3.90;99.90;;;;;;5151087;22;20183;-93
2024/02/28 01:28:52;;;;;;;6.57;2.43;;;3.90;99.90;;;;;;5177687;22;20162;-92
2024/02/28 01:31:27;;;;;;;6.80;3.20;;;4.00;99.90;;;;;;5153244;22;20136;-95
2024/02/28 01:33:55;;;;;;;6.63;2.03;;;4.00;99.90;;;;;;5150458;22;20693;-93
2024/02/28 01:36:04;;;;;;;7.50;2.37;;;4.10;99.90;;;;;;5150993;22;20132;-94
2024/02/28 01:38:11;;;;;;;5.83;2.77;;;4.10;99.90;;;;;;5152057;22;20151;-93
2024/02/28 01:40:21;;;;;;;5.83;3.03;;;4.10;99.90;;;;;;5126539;23;20678;-95
2024/02/28 01:42:32;;;;;;;5.83;2.17;;;4.20;99.90;;;;;;5123873;23;20159;-92
2024/02/28 01:44:49;;;;;;;9.10;3.10;;;4.00;99.90;;;;;;5127975;23;20627;-93
2024/02/28 01:46:56;;;;;;;8.47;3.27;;;3.80;99.90;;;;;;5152326;22;20159;-91
2024/02/28 01:49:07;;;;;;;11.47;3.50;;;3.70;99.90;;;;;;5153926;22;20185;-94
2024/02/28 01:51:15;;;;;;;5.67;2.53;;;3.70;99.90;;;;;;5124989;23;20152;-93
2024/02/28 01:53:24;;;;;;;6.30;3.33;;;3.60;99.90;;;;;;5123655;23;20156;-95
2024/02/28 01:55:28;;;;;;;8.53;3.57;;;3.50;99.90;;;;;;5149935;22;20171;-93
2024/02/28 01:57:32;;;;;;;6.87;3.13;;;3.50;99.90;;;;;;5125274;23;20156;-94
2024/02/28 01:59:37;;;;;;;4.80;2.80;;;3.50;99.90;;;;;;5152133;22;20237;-94
2024/02/28 02:01:57;;;;;;;7.50;3.50;;;3.40;99.90;;;;;;5177948;22;20150;-95
2024/02/28 02:04:29;;;;;;;5.87;3.07;;;3.50;99.90;;;;;;5149157;23;20174;-94
2024/02/28 02:06:47;;;;;;;6.33;2.83;;;3.50;99.90;;;;;;5151964;23;20155;-93
2024/02/28 02:08:58;;;;;;;8.33;3.73;;;3.40;99.90;;;;;;5149021;23;20155;-94
2024/02/28 02:11:06;;;;;;;12.90;3.13;;;3.50;99.90;;;;;;5130869;23;20152;-93
2024/02/28 02:13:14;;;;;;;5.17;2.93;;;3.50;99.90;;;;;;5178306;22;20189;-93
2024/02/28 02:15:40;;;;;;;;;;;;;;;;;;;;;
2024/02/28 02:17:46;;;;;;;6.57;3.37;;;3.50;99.90;;;;;;5154122;22;20294;-94
2024/02/28 02:19:58;;;;;;;4.80;2.80;;;3.60;99.90;;;;;;5152501;22;20172;-94
2024/02/28 02:22:10;;;;;;;6.53;2.80;;;3.60;99.90;;;;;;5152400;22;20136;-94
2024/02/28 02:24:28;;;;;;;6.43;2.90;;;3.70;99.90;;;;;;5174867;22;20142;-93
2024/02/28 02:26:35;;;;;;;5.93;2.97;;;3.70;99.90;;;;;;5128709;23;20160;-94
2024/02/28 02:28:37;;;;;;;8.10;3.53;;;3.70;99.90;;;;;;5127791;23;20172;-95
2024/02/28 02:30:47;;;;;;;5.40;3.30;;;3.70;99.90;;;;;;5152300;22;20574;-93
2024/02/28 02:33:00;;;;;;;8.60;4.30;;;3.70;99.90;;;;;;5152686;22;20185;-94
2024/02/28 02:35:16;;;;;;;8.13;3.20;;;3.80;99.90;;;;;;5155995;22;20166;-94
2024/02/28 02:37:29;;;;;;;6.80;3.00;;;3.90;99.90;;;;;;5157596;22;20606;-95
2024/02/28 02:39:40;;;;;;;9.83;3.63;;;3.90;99.90;;;;;;5153697;22;20175;-94
2024/02/28 02:41:44;;;;;;;6.87;3.27;;;3.90;99.90;;;;;;5131490;23;20152;-93
2024/02/28 02:43:52;;;;;;;8.67;3.67;;;3.90;99.90;;;;;;5140366;23;20156;-93
2024/02/28 02:45:56;;;;;;;7.07;3.50;;;3.90;99.90;;;;;;5131848;23;20160;-93
2024/02/28 02:48:14;;;;;;;9.03;3.67;;;3.90;99.90;;;;;;5156685;22;20170;-94
2024/02/28 02:50:46;;;;;;;12.73;4.00;;;3.90;99.90;;;;;;5153208;22;20148;-94
2024/02/28 02:52:56;;;;;;;6.23;3.00;;;3.80;99.90;;;;;;5125724;23;20195;-93
2024/02/28 02:55:15;;;;;;;11.20;3.87;;;3.80;99.90;;;;;;5153547;22;20151;-93
2024/02/28 02:57:23;;;;;;;8.20;3.87;;;3.70;99.90;;;;;;5126979;23;20167;-93
2024/02/28 02:59:38;;;;;;;7.83;4.00;;;3.70;99.90;;;;;;5151797;22;20291;-95
2024/02/28 03:01:47;;;;;;;4.53;2.53;;;3.80;99.90;;;;;;5150995;22;20136;-93
2024/02/28 03:04:04;;;;;;;7.03;4.10;;;3.80;99.90;;;;;;5176671;22;20566;-94
2024/02/28 03:06:29;;;;;;;10.90;3.90;;;3.80;99.90;;;;;;5176048;23;20155;-93
2024/02/28 03:08:42;;;;;;;12.50;4.30;;;3.90;99.90;;;;;;5149555;23;20167;-94
2024/02/28 03:11:07;;;;;;;9.47;3.17;;;4.00;99.90;;;;;;5151136;22;20175;-95
2024/02/28 03:13:22;;;;;;;7.00;3.47;;;4.00;99.90;;;;;;5131108;22;20171;-94
2024/02/28 03:15:29;;;;;;;7.93;4.07;;;4.00;99.90;;;;;;5129085;23;20227;-93
2024/02/28 03:17:45;;;;;;;7.37;3.50;;;3.70;99.90;;;;;;5147923;23;20182;-94
2024/02/28 03:19:56;;;;;;;6.93;3.60;;;3.40;99.90;;;;;;5122917;23;20184;-93
2024/02/28 03:21:59;;;;;;;6.70;3.33;;;3.20;99.90;;;;;;5147682;22;20131;-93
2024/02/28 03:24:08;;;;;;;5.53;3.20;;;3.00;99.90;;;;;;5123852;23;20162;-94
2024/02/28 03:26:15;;;;;;;6.63;4.03;;;3.00;99.90;;;;;;5146219;23;20155;-94
2024/02/28 03:28:31;;;;;;;12.00;4.17;;;3.10;99.90;;;;;;5174895;22;20517;-94
2024/02/28 03:30:32;;;;;;;7.50;3.43;;;3.00;99.90;;;;;;5150523;23;20152;-95
2024/02/28 03:32:42;;;;;;;4.33;2.60;;;3.00;99.90;;;;;;5148209;23;20195;-93
2024/02/28 03:35:01;;;;;;;7.97;2.93;;;2.90;99.90;;;;;;5154100;22;20162;-94
2024/02/28 03:37:08;;;;;;;6.30;3.80;;;3.00;99.90;;;;;;5124668;23;20657;-95
2024/02/28 03:39:12;;;;;;;10.23;3.17;;;3.10;99.90;;;;;;5127025;23;20172;-93
2024/02/28 03:41:22;;;;;;;13.30;3.40;;;3.10;99.90;;;;;;5153008;22;20163;-94
2024/02/28 03:43:33;;;;;;;6.93;3.53;;;3.00;99.90;;;;;;5152166;22;20155;-94
2024/02/28 03:45:45;;;;;;;16.47;3.07;;;2.90;99.90;;;;;;5128472;23;20140;-94
2024/02/28 03:48:14;;;;;;;11.23;4.70;;;2.80;99.90;;;;;;5177296;22;20212;-94
2024/02/28 03:50:18;;;;;;;11.33;4.40;;;2.90;99.90;;;;;;5124915;23;20156;-94
2024/02/28 03:52:28;;;;;;;10.57;4.20;;;2.80;99.90;;;;;;5124098;23;20191;-94
2024/02/28 03:54:48;;;;;;;10.27;3.73;;;2.80;99.90;;;;;;5151108;23;20151;-95
2024/02/28 03:56:59;;;;;;;10.97;3.70;;;2.70;99.90;;;;;;5127779;23;20148;-93
2024/02/28 03:59:15;;;;;;;9.80;4.00;;;2.70;99.90;;;;;;5176086;22;20178;-94
2024/02/28 04:01:18;;;;;;;9.73;3.43;;;2.60;99.90;;;;;;5127485;23;20181;-94
2024/02/28 04:03:20;;;;;;;8.83;3.70;;;2.60;99.90;;;;;;5149649;23;20148;-94
2024/02/28 04:05:24;;;;;;;7.13;3.53;;;2.60;99.90;;;;;;5122277;23;20155;-94
2024/02/28 04:07:28;;;;;;;9.27;4.37;;;2.60;99.90;;;;;;5149734;22;20510;-94
2024/02/28 04:09:37;;;;;;;9.23;4.60;;;2.60;99.90;;;;;;5152773;22;20183;-94
2024/02/28 04:11:39;;;;;;;6.50;3.60;;;2.50;99.90;;;;;;5151027;23;20139;-94
2024/02/28 04:14:03;;;;;;;7.17;3.33;;;2.50;99.90;;;;;;5179798;22;20482;-93
2024/02/28 04:16:17;;;;;;;7.63;3.77;;;2.50;99.90;;;;;;5125821;23;20148;-94
2024/02/28 04:18:39;;;;;;;16.80;3.20;;;2.40;99.90;;;;;;5156833;22;20206;-94
2024/02/28 04:20:50;;;;;;;10.07;3.23;;;2.50;99.90;;;;;;5175176;23;20147;-94
2024/02/28 04:23:16;;;;;;;9.43;3.57;;;2.40;99.90;;;;;;5123830;23;20139;-94
2024/02/28 04:25:25;;;;;;;11.83;4.33;;;2.40;99.90;;;;;;5152564;22;20159;-94
2024/02/28 04:27:50;;;;;;;6.73;4.17;;;2.40;99.90;;;;;;5155142;22;20159;-94
2024/02/28 04:29:57;;;;;;;5.27;3.17;;;2.50;99.90;;;;;;5150587;23;20230;-93
2024/02/28 04:32:09;;;;;;;12.33;3.23;;;2.40;99.90;;;;;;5149540;22;20198;-93
2024/02/28 04:34:22;;;;;;;12.87;4.50;;;2.40;99.90;;;;;;5127741;23;20194;-94
2024/02/28 04:36:42;;;;;;;8.90;3.53;;;2.40;99.90;;;;;;5151530;22;20159;-94
2024/02/28 04:38:46;;;;;;;11.17;4.23;;;2.40;99.90;;;;;;5125230;23;20709;-95
2024/02/28 04:41:09;;;;;;;7.10;4.17;;;2.40;99.90;;;;;;5157388;22;20147;-94
2024/02/28 04:43:26;;;;;;;8.67;4.47;;;2.40;99.90;;;;;;5164500;22;20147;-93
2024/02/28 04:46:12;;;;;;;11.50;5.13;;;2.40;99.90;;;;;;5181110;22;20150;-94
2024/02/28 04:48:28;;;;;;;11.53;3.70;;;2.50;99.90;;;;;;5151185;22;20159;-94
2024/02/28 04:50:51;;;;;;;8.77;4.57;;;2.60;99.90;;;;;;5130257;23;20139;-94
2024/02/28 04:52:53;;;;;;;8.93;3.97;;;2.60;99.90;;;;;;5154762;22;20191;-95
2024/02/28 04:55:02;;;;;;;10.13;3.33;;;2.50;99.90;;;;;;5152786;22;20139;-93
2024/02/28 04:57:04;;;;;;;7.43;3.53;;;2.60;99.90;;;;;;5149380;23;20227;-94
2024/02/28 04:59:28;;;;;;;7.90;3.87;;;2.50;99.90;;;;;;5157623;22;20151;-93
2024/02/28 05:01:31;;;;;;;6.80;3.57;;;2.50;99.90;;;;;;5129633;23;20160;-95
2024/02/28 05:03:43;;;;;;;5.83;2.93;;;2.50;99.90;;;;;;5176830;22;20157;-94
2024/02/28 05:05:47;;;;;;;11.93;4.87;;;2.50;99.90;;;;;;5127851;23;20188;-94
2024/02/28 05:08:19;;;;;;;8.00;4.13;;;2.50;99.90;;;;;;5175729;22;20151;-95
2024/02/28 05:10:31;;;;;;;11.20;4.40;;;2.50;99.90;;;;;;5152332;22;20199;-94
2024/02/28 05:12:42;;;;;;;12.07;4.03;;;2.40;99.90;;;;;;5156912;22;20190;-93
2024/02/28 05:14:53;;;;;;;9.30;4.20;;;2.40;99.90;;;;;;5177157;22;20250;-93
2024/02/28 05:17:22;;;;;;;8.77;3.60;;;2.50;99.90;;;;;;5155959;22;20203;-93
2024/02/28 05:19:26;;;;;;;5.97;2.33;;;2.50;99.90;;;;;;5150039;22;20631;-94
2024/02/28 05:21:27;;;;;;;6.10;3.27;;;2.50;99.90;;;;;;5128128;23;20152;-94
2024/02/28 05:23:36;;;;;;;10.60;5.03;;;2.60;99.90;;;;;;5148798;22;20152;-92
2024/02/28 05:25:42;;;;;;;14.80;4.13;;;2.50;99.90;;;;;;5147950;23;20127;-94
2024/02/28 05:27:50;;;;;;;9.07;4.33;;;2.60;99.90;;;;;;5147840;23;20152;-94
2024/02/28 05:29:52;;;;;;;12.17;4.93;;;2.60;99.90;;;;;;5119169;23;20172;-93
2024/02/28 05:32:05;;;;;;;8.87;4.60;;;2.60;99.90;;;;;;5125000;23;20227;-95
2024/02/28 13:00:47;;;;;;;7.15;2.50;;;10.10;99.90;;;;;;5211155;22;20188;-94
2024/02/28 13:03:29;;;;;;;3.42;1.70;;;10.00;99.90;;;;;;5203702;22;20158;-96
2024/02/28 13:08:00;;;;;;;2.80;1.77;;;9.90;99.90;;;;;;5227125;22;20197;-93
2024/02/28 13:10:06;;;;;;;4.75;1.98;;;9.90;99.90;;;;;;5152063;23;20226;-93
2024/02/28 13:12:34;;;;;;;5.28;2.00;;;9.90;99.90;;;;;;5201933;22;20193;-94
2024/02/28 13:14:48;;;;;;;5.47;3.05;;;10.00;99.90;;;;;;5151938;23;20140;-93
2024/02/28 13:16:59;;;;;;;9.48;3.15;;;10.00;99.90;;;;;;5175228;22;20157;-95
2024/02/28 13:19:04;;;;;;;3.20;1.88;;;9.90;99.90;;;;;;5176476;22;20260;-93
2024/02/28 13:21:20;;;;;;;10.48;3.70;;;10.10;99.90;;;;;;5189109;22;20528;-93
2024/02/28 13:23:33;;;;;;;3.35;1.35;;;10.10;99.90;;;;;;5188200;22;20170;-94
2024/02/28 13:25:59;;;;;;;3.30;1.77;;;10.00;99.90;;;;;;5205034;22;20174;-94
2024/02/28 13:28:06;;;;;;;3.80;1.70;;;10.10;99.90;;;;;;5175320;22;20250;-93
2024/02/28 13:30:12;;;;;;;2.13;1.33;;;10.30;99.90;;;;;;5156413;23;20195;-93
2024/02/28 13:32:44;;;;;;;7.95;2.05;;;10.30;99.90;;;;;;5176119;22;20242;-93
2024/02/28 13:34:48;;;;;;;3.35;1.90;;;10.40;99.90;;;;;;5165952;23;20133;-94
2024/02/28 13:37:15;;;;;;;1.65;0.90;;;10.60;99.90;;;;;;5191560;22;20164;-93
2024/02/28 13:39:35;;;;;;;3.85;1.85;;;10.50;99.90;;;;;;5217516;22;20180;-93
2024/02/28 13:41:38;;;;;;;3.03;1.50;;;10.40;99.90;;;;;;5166475;23;20148;-95
2024/02/28 13:43:55;;;;;;;2.97;1.10;;;10.30;99.90;;;;;;5192970;22;20139;-94
2024/02/28 13:46:06;;;;;;;3.38;1.15;;;10.30;99.90;;;;;;5166819;23;20153;-93
2024/02/28 13:48:29;;;;;;;3.13;1.50;;;10.30;99.90;;;;;;5191547;22;20139;-93
2024/02/28 13:50:47;;;;;;;8.43;1.58;;;10.60;99.90;;;;;;5211840;22;20150;-93
2024/02/28 13:52:53;;;;;;;3.08;1.40;;;10.70;99.90;;;;;;5155384;23;20175;-93
2024/02/28 13:55:10;;;;;;;2.67;1.25;;;10.60;99.90;;;;;;5180984;22;20206;-93
2024/02/28 13:57:55;;;;;;;1.50;1.02;;;10.60;99.90;;;;;;5180755;22;20147;-94
2024/02/28 13:59:56;;;;;;;1.95;1.00;;;10.70;99.90;;;;;;5156622;23;20691;-95
2024/02/28 14:02:29;;;;;;;1.98;0.75;;;10.70;99.90;;;;;;5156003;23;20234;-93
2024/02/28 14:05:00;;;;;;;6.00;0.85;;;10.70;99.90;;;;;;5183576;22;20159;-94
2024/02/28 14:07:30;;;;;;;8.68;1.25;;;10.50;99.90;;;;;;5183021;22;20162;-93
2024/02/28 14:09:47;;;;;;;2.38;1.05;;;10.80;99.90;;;;;;5207923;22;20598;-93
2024/02/28 14:12:09;;;;;;;2.47;1.20;;;10.60;99.90;;;;;;5186313;22;20193;-93
2024/02/28 14:14:21;;;;;;;2.10;0.90;;;10.60;99.90;;;;;;5180518;22;20165;-93
2024/02/28 14:16:22;;;;;;;1.42;0.90;;;10.90;99.90;;;;;;5159046;23;20140;-94
2024/02/28 14:21:07;;;;;;;1.17;0.98;;;11.10;99.90;;;;;;5229248;22;20211;-93
2024/02/28 14:23:33;;;;;;;0.85;0.47;;;10.90;99.90;;;;;;5209637;22;20162;-94
2024/02/28 14:26:10;;;;;;;;;;;;;;;;;;;;;
2024/02/28 14:28:36;;;;;;;0.70;0.52;;;10.80;99.90;;;;;;5205056;22;20138;-94
2024/02/28 14:31:14;;;;;;;0.77;0.65;;;10.50;99.90;;;;;;5155670;23;20152;-94
2024/02/28 14:33:38;;;;;;;1.33;0.80;;;10.40;99.90;;;;;;5157593;23;20234;-93
2024/02/28 14:36:03;;;;;;;1.23;0.60;;;10.40;99.90;;;;;;5187532;22;20138;-93
2024/02/28 14:38:16;;;;;;;1.77;0.68;;;10.50;99.90;;;;;;5181818;22;20222;-94
2024/02/28 14:40:52;;;;;;;3.45;1.10;;;10.40;99.90;;;;;;5184395;22;20233;-94
2024/02/28 14:43:37;;;;;;;0.93;0.60;;;10.40;99.90;;;;;;5209056;22;20170;-96
2024/02/28 14:46:08;;;;;;;1.13;0.50;;;10.50;99.90;;;;;;5158475;23;20142;-93
2024/02/28 14:48:41;;;;;;;1.88;0.90;;;10.60;99.90;;;;;;5201207;22;20138;-94
2024/02/28 14:51:29;;;;;;;0.93;0.70;;;10.50;99.90;;;;;;5208117;22;20138;-93
2024/02/28 14:53:36;;;;;;;1.73;0.90;;;10.40;99.90;;;;;;5151688;23;20176;-93
2024/02/28 14:55:51;;;;;;;2.38;0.52;;;10.20;99.90;;;;;;5155301;23;20152;-94
2024/02/28 14:58:09;;;;;;;4.05;0.60;;;10.20;99.90;;;;;;5176976;22;20175;-93
2024/02/28 15:00:21;;;;;;;7.32;1.73;;;10.30;99.90;;;;;;5182395;22;20151;-96
2024/02/28 15:02:25;;;;;;;1.02;0.40;;;10.30;99.90;;;;;;5155222;23;20163;-94
2024/02/28 15:04:45;;;;;;;1.45;0.50;;;10.20;99.90;;;;;;5174553;23;20147;-94
2024/02/28 15:06:52;;;;;;;1.65;0.90;;;10.10;99.90;;;;;;5158976;23;20174;-93
2024/02/28 15:09:05;;;;;;;1.55;0.65;;;10.10;99.90;;;;;;5155945;23;20168;-93
2024/02/28 15:11:34;;;;;;;1.27;0.70;;;10.10;99.90;;;;;;5156901;23;20163;-94
2024/02/28 15:13:52;;;;;;;1.85;0.85;;;10.30;99.90;;;;;;5179762;22;20194;-95
2024/02/28 15:16:19;;;;;;;2.00;0.70;;;10.20;99.90;;;;;;5155450;23;20139;-95
2024/02/28 15:18:49;;;;;;;0.65;0.52;;;10.20;99.90;;;;;;5210600;22;20961;-96
2024/02/28 15:21:16;;;;;;;2.03;0.98;;;10.10;99.90;;;;;;5186412;22;20197;-94
2024/02/28 15:23:38;;;;;;;1.45;0.77;;;10.20;99.90;;;;;;5180384;22;20159;-93
2024/02/28 15:25:43;;;;;;;5.25;0.68;;;10.50;99.90;;;;;;5183225;22;20159;-93
2024/02/28 15:28:13;;;;;;;1.23;0.80;;;10.50;99.90;;;;;;5157906;23;20223;-93
2024/02/28 15:30:21;;;;;;;4.95;0.82;;;10.50;99.90;;;;;;5157951;23;20187;-93
2024/02/28 15:32:27;;;;;;;0.70;0.60;;;10.30;99.90;;;;;;5156411;23;20174;-92
2024/02/28 15:34:36;;;;;;;1.92;0.77;;;10.20;99.90;;;;;;5182633;22;20139;-94
2024/02/28 15:36:43;;;;;;;1.30;0.82;;;10.20;99.90;;;;;;5184041;22;20135;-94
2024/02/28 15:39:09;;;;;;;2.33;0.90;;;10.20;99.90;;;;;;5181457;22;20174;-93
2024/02/28 15:41:11;;;;;;;1.60;0.70;;;10.20;99.90;;;;;;5182048;22;20139;-94
2024/02/28 15:43:38;;;;;;;5.85;1.00;;;10.30;99.90;;;;;;5183282;22;20163;-94
2024/02/28 15:45:54;;;;;;;1.33;0.90;;;10.20;99.90;;;;;;5184756;22;20143;-94
2024/02/28 15:48:03;;;;;;;0.57;0.55;;;10.20;99.90;;;;;;5209981;22;20150;-96
2024/02/28 15:50:28;;;;;;;1.40;0.85;;;10.00;99.90;;;;;;5179145;22;20155;-93
2024/02/28 15:52:33;;;;;;;1.38;1.08;;;10.00;99.90;;;;;;5180652;22;20183;-93
2024/02/28 15:54:39;;;;;;;1.50;0.95;;;9.90;99.90;;;;;;5154670;23;20487;-96
2024/02/28 15:56:48;;;;;;;2.97;1.02;;;9.90;99.90;;;;;;5159169;23;20234;-93
2024/02/28 15:58:57;;;;;;;2.40;1.20;;;9.90;99.90;;;;;;5185391;22;20161;-93
2024/02/28 16:01:23;;;;;;;1.63;0.93;;;10.00;99.90;;;;;;5216895;22;20138;-93
2024/02/28 16:03:41;;;;;;;1.52;1.20;;;9.90;99.90;;;;;;5183882;22;20202;-93
2024/02/28 16:06:03;;;;;;;1.65;0.90;;;9.90;99.90;;;;;;5183846;22;20151;-94
2024/02/28 16:08:15;;;;;;;1.77;1.20;;;9.90;99.90;;;;;;5181150;22;20162;-92
2024/02/28 16:10:25;;;;;;;2.58;1.20;;;10.00;99.90;;;;;;5179680;22;20147;-92
2024/02/28 16:12:27;;;;;;;4.03;1.33;;;10.00;99.90;;;;;;5155820;23;20214;-92
2024/02/28 16:14:29;;;;;;;1.70;0.65;;;10.00;99.90;;;;;;5155723;23;20179;-94
2024/02/28 16:16:32;;;;;;;2.15;0.85;;;10.00;99.90;;;;;;5154521;23;20240;-93
2024/02/28 16:18:40;;;;;;;0.75;0.68;;;9.80;99.90;;;;;;5154075;23;20618;-95
2024/02/28 16:20:51;;;;;;;5.03;1.10;;;9.80;99.90;;;;;;5184142;22;20155;-93
2024/02/28 16:22:53;;;;;;;5.10;0.90;;;9.90;99.90;;;;;;5154180;23;20155;-92
2024/02/28 16:25:43;;;;;;;0.95;0.75;;;9.80;99.90;;;;;;5203482;22;20481;-92
2024/02/28 16:27:44;;;;;;;1.52;0.90;;;9.80;99.90;;;;;;5157058;23;20202;-93
2024/02/28 16:30:08;;;;;;;2.60;0.77;;;9.80;99.90;;;;;;5181349;22;20548;-92
2024/02/28 16:32:21;;;;;;;1.88;0.75;;;9.70;99.90;;;;;;5205022;22;20192;-93
2024/02/28 16:34:35;;;;;;;2.67;1.20;;;9.70;99.90;;;;;;5179939;22;20151;-93
2024/02/28 16:36:39;;;;;;;4.05;1.50;;;9.60;99.90;;;;;;5149660;23;20155;-92
2024/02/28 16:38:44;;;;;;;2.63;1.05;;;9.60;99.90;;;;;;5154828;22;20195;-90
2024/02/28 16:40:45;;;;;;;3.38;1.38;;;9.60;99.90;;;;;;5152020;23;20151;-93
2024/02/28 16:42:53;;;;;;;5.25;1.83;;;9.60;99.90;;;;;;5181408;22;20158;-93
2024/02/28 16:44:59;;;;;;;11.10;2.05;;;9.70;99.90;;;;;;5182202;22;20142;-92
2024/02/28 16:47:00;;;;;;;4.25;2.03;;;9.70;99.90;;;;;;5155123;23;20136;-93
2024/02/28 16:49:18;;;;;;;8.07;2.28;;;9.70;99.90;;;;;;5181564;22;20159;-93
2024/02/28 16:51:45;;;;;;;6.00;2.67;;;9.80;99.90;;;;;;5178824;22;20159;-93
2024/02/28 16:53:56;;;;;;;7.93;2.60;;;9.80;99.90;;;;;;5207407;22;20170;-93
2024/02/28 16:55:59;;;;;;;9.77;2.88;;;9.70;99.90;;;;;;5154471;23;20155;-93
2024/02/28 16:58:05;;;;;;;12.88;4.13;;;9.60;99.90;;;;;;5181957;22;20139;-93
2024/02/28 17:00:23;;;;;;;9.18;2.67;;;9.60;99.90;;;;;;5181314;22;20147;-93
2024/02/28 17:02:46;;;;;;;16.83;4.88;;;9.50;99.90;;;;;;5175423;22;20238;-92
2024/02/28 17:04:47;;;;;;;14.27;3.35;;;9.40;99.90;;;;;;5158232;23;20159;-93
2024/02/28 17:06:57;;;;;;;14.68;3.72;;;9.40;99.90;;;;;;5150805;23;20143;-93
2024/02/28 17:09:26;;;;;;;10.50;3.67;;;9.40;99.90;;;;;;5202443;22;20184;-94
2024/02/28 17:11:29;;;;;;;7.32;3.30;;;9.40;99.90;;;;;;5165303;23;20159;-93
2024/02/28 17:13:35;;;;;;;5.78;2.30;;;9.40;99.90;;;;;;5179095;22;20194;-92
2024/02/28 17:16:01;;;;;;;7.90;2.63;;;9.30;99.90;;;;;;5185200;22;20135;-93
2024/02/28 17:18:06;;;;;;;5.00;1.92;;;9.30;99.90;;;;;;5152279;23;20234;-93
2024/02/28 17:20:12;;;;;;;10.40;2.60;;;9.30;99.90;;;;;;5183254;22;20158;-93
2024/02/28 17:22:16;;;;;;;7.93;2.83;;;9.30;99.90;;;;;;5181127;22;20155;-94
2024/02/28 17:24:20;;;;;;;4.97;2.17;;;9.30;99.90;;;;;;5151550;23;20144;-93
2024/02/28 17:26:21;;;;;;;7.65;1.45;;;9.20;99.90;;;;;;5158193;23;20143;-93
2024/02/28 17:29:10;;;;;;;9.00;2.88;;;9.20;99.90;;;;;;5205152;22;20307;-93
2024/02/28 17:31:17;;;;;;;4.22;1.92;;;9.20;99.90;;;;;;5152895;23;20159;-93
2024/02/28 17:33:25;;;;;;;3.78;2.03;;;9.20;99.90;;;;;;5157739;23;20175;-96
2024/02/28 17:35:48;;;;;;;3.58;2.10;;;9.20;99.90;;;;;;5154297;23;20159;-93
2024/02/28 17:37:51;;;;;;;3.55;1.80;;;9.30;99.90;;;;;;5178335;22;20139;-93
2024/02/28 17:39:55;;;;;;;5.72;2.40;;;9.20;99.90;;;;;;5185288;22;20195;-93
2024/02/28 17:41:59;;;;;;;8.65;1.73;;;9.30;99.90;;;;;;5156728;23;20219;-93
2024/02/28 17:44:11;;;;;;;3.00;2.13;;;9.40;99.90;;;;;;5183563;22;20155;-93
2024/02/28 17:46:15;;;;;;;4.75;1.80;;;9.40;99.90;;;;;;5153889;23;20155;-92
2024/02/28 17:48:18;;;;;;;4.63;2.95;;;9.50;99.90;;;;;;5153857;23;20159;-93
2024/02/28 17:50:24;;;;;;;4.05;1.27;;;9.40;99.90;;;;;;5181487;22;20139;-93
2024/02/28 17:52:34;;;;;;;4.22;1.85;;;9.30;99.90;;;;;;5154716;23;20238;-93
2024/02/28 17:54:37;;;;;;;2.60;1.52;;;9.30;99.90;;;;;;5153432;23;20163;-94
2024/02/28 17:56:46;;;;;;;2.55;1.75;;;9.50;99.90;;;;;;5177867;22;20155;-94
2024/02/28 17:59:07;;;;;;;5.88;1.88;;;9.40;99.90;;;;;;5209647;22;20282;-93
2024/02/28 18:01:18;;;;;;;6.55;1.75;;;9.20;99.90;;;;;;5177005;22;20154;-93
2024/02/28 18:03:45;;;;;;;3.13;1.48;;;9.20;99.90;;;;;;5204150;22;20138;-94
2024/02/28 18:06:14;;;;;;;5.65;2.47;;;9.30;99.90;;;;;;5181731;22;20147;-93
2024/02/28 18:08:38;;;;;;;7.32;3.47;;;9.20;99.90;;;;;;5170655;22;20203;-92
2024/02/28 18:10:45;;;;;;;3.58;2.35;;;9.30;99.90;;;;;;5129466;23;20160;-93
2024/02/28 18:12:52;;;;;;;2.38;1.60;;;9.40;99.90;;;;;;5132096;23;20256;-94
2024/02/28 18:15:16;;;;;;;4.93;2.70;;;9.20;99.90;;;;;;5150889;22;20139;-93
2024/02/28 18:17:44;;;;;;;6.88;3.15;;;9.10;99.90;;;;;;5138778;23;20140;-91
2024/02/28 18:19:52;;;;;;;5.70;2.50;;;8.90;99.90;;;;;;5135341;23;20184;-93
2024/02/28 18:22:08;;;;;;;9.90;2.55;;;8.80;99.90;;;;;;5131919;23;20203;-96
2024/02/28 18:24:09;;;;;;;9.27;2.63;;;8.80;99.90;;;;;;5153500;22;20155;-92
2024/02/28 18:26:27;;;;;;;5.53;2.20;;;8.80;99.90;;;;;;5126047;23;20187;-93
2024/02/28 18:28:37;;;;;;;9.32;2.67;;;8.80;99.90;;;;;;5126187;23;20180;-93
2024/02/28 18:30:43;;;;;;;4.57;1.80;;;8.80;99.90;;;;;;5151947;22;20226;-93
2024/02/28 18:32:49;;;;;;;4.57;2.40;;;8.70;99.90;;;;;;5156695;22;20195;-93
2024/02/28 18:35:16;;;;;;;10.07;2.33;;;8.80;99.90;;;;;;5158572;22;20493;-93
2024/02/28 18:37:46;;;;;;;5.75;2.65;;;9.00;99.90;;;;;;5177188;22;20241;-93
2024/02/28 18:39:47;;;;;;;6.53;3.10;;;8.90;99.90;;;;;;5128622;23;20271;-94
2024/02/28 18:42:04;;;;;;;7.32;2.35;;;9.00;99.90;;;;;;5153704;22;20195;-94
2024/02/28 18:44:07;;;;;;;5.25;2.67;;;9.00;99.90;;;;;;5123552;23;20160;-93
2024/02/28 18:46:15;;;;;;;4.55;2.85;;;8.90;99.90;;;;;;5122432;23;20160;-93
2024/02/28 18:48:28;;;;;;;10.70;3.60;;;8.90;99.90;;;;;;5156374;22;20170;-93
2024/02/28 18:50:34;;;;;;;4.97;2.60;;;9.00;99.90;;;;;;5153200;22;20146;-93
2024/02/28 18:52:39;;;;;;;8.93;2.80;;;8.80;99.90;;;;;;5157735;22;20266;-93
2024/02/28 18:54:58;;;;;;;7.72;3.58;;;8.70;99.90;;;;;;5183902;22;20169;-93
2024/02/28 18:57:08;;;;;;;8.90;3.05;;;8.60;99.90;;;;;;5129180;23;20151;-93
2024/02/28 18:59:19;;;;;;;4.35;2.65;;;8.50;99.90;;;;;;5128488;23;20207;-93
2024/02/28 19:01:22;;;;;;;7.05;2.63;;;8.50;99.90;;;;;;5155849;22;20159;-92
2024/02/28 19:03:25;;;;;;;7.15;3.95;;;8.50;99.90;;;;;;5127596;23;20164;-94
2024/02/28 19:05:36;;;;;;;7.00;2.90;;;8.40;99.90;;;;;;5129908;23;20156;-93
2024/02/28 19:08:00;;;;;;;7.43;3.60;;;8.40;99.90;;;;;;5132905;23;20148;-92
2024/02/28 19:10:01;;;;;;;7.05;4.63;;;8.40;99.90;;;;;;5146931;22;20172;-94
2024/02/28 19:12:16;;;;;;;8.93;3.15;;;8.40;99.90;;;;;;5134968;23;20132;-94
2024/02/28 19:14:25;;;;;;;14.50;3.95;;;8.30;99.90;;;;;;5148251;22;20591;-94